CheckWX is a tool to help pilots better visualize weather data.  It is not intended as a substitute for an official pre-flight weather briefing.

02:41:40 UTC

SAME TAF
El Plumerillo Airport
Mendoza, Argentina
TAF SAME 222300Z 2300/2324 11005KT 9999 FEW050 TX38/2320Z TN26/2309Z BECMG 2303/2305 VRB03KT CAVOK BECMG 2313/2315 07010KT BECMG 2317/2319 07010KT 9999 SCT040

Jan-23@
00:00 UTC

Jan-23 @ 00:00 UTC

Jan-23@
03:00 UTC

Jan-23 @ 03:00 UTC

TAF SAME 222300Z 2300/2324 11005KT 9999 FEW050 TX38/2320Z TN26/2309Z
Wind
  • 110° at 5 KTS
Cloud Levels
  • Few at 5,000' AGL

Jan-23@
03:00 UTC

Jan-23 @ 03:00 UTC

Jan-23@
13:00 UTC

Jan-23 @ 13:00 UTC

BECMG 2303/2305 VRB03KT CAVOK

Becoming

Becoming Conditions expected by Thu, Jan 23, 2020 @ 05:00 UTC

Wind
  • Variable at 3 KTS
Conditions
No significant weather
Cloud Levels
  • No significant clouds

Jan-23@
13:00 UTC

Jan-23 @ 13:00 UTC

Jan-23@
17:00 UTC

Jan-23 @ 17:00 UTC

BECMG 2313/2315 07010KT

Becoming

Becoming Conditions expected by Thu, Jan 23, 2020 @ 15:00 UTC

Wind
  • 070° at 10 KTS
Conditions
No significant weather
Cloud Levels
  • No significant clouds

Jan-23@
17:00 UTC

Jan-23 @ 17:00 UTC

Jan-24@
00:00 UTC

Jan-24 @ 00:00 UTC

BECMG 2317/2319 07010KT 9999 SCT040

Becoming

Becoming Conditions expected by Thu, Jan 23, 2020 @ 19:00 UTC

Wind
  • 070° at 10 KTS
Conditions
No significant weather
Cloud Levels
  • Scattered at 4,000' AGL